createdAt,value
2023-05-13T00:01:05.805Z,97634.69
2023-05-13T00:03:34.084Z,97641.78
2023-05-13T00:06:03.885Z,97637.72
2023-05-13T00:08:31.636Z,97641.69
2023-05-13T00:11:28.580Z,97647.34
2023-05-13T00:13:58.145Z,97649.31
2023-05-13T00:16:31.517Z,97645.63
2023-05-13T00:18:59.809Z,97639.44
2023-05-13T00:21:33.055Z,97644.25
2023-05-13T00:24:07.923Z,97638.19
2023-05-13T00:26:36.518Z,97642.78
2023-05-13T00:29:04.712Z,97637.03
2023-05-13T00:31:33.703Z,97639.03
2023-05-13T00:34:01.571Z,97636.91
2023-05-13T00:36:40.272Z,97647.28
2023-05-13T00:39:29.972Z,97646.09
2023-05-13T00:41:57.763Z,97640.03
2023-05-13T00:44:25.908Z,97639.19
2023-05-13T00:46:57.276Z,97645.84
2023-05-13T00:49:24.407Z,97647.69
2023-05-13T00:51:56.121Z,97650.31
2023-05-13T00:54:23.344Z,97653.03
2023-05-13T00:56:55.308Z,97653.31
2023-05-13T00:59:25.210Z,97656.88
2023-05-13T01:02:04.585Z,97662.72
2023-05-13T01:04:47.126Z,97661.84
2023-05-13T01:07:36.159Z,97660.53
2023-05-13T01:10:06.800Z,97666.81
2023-05-13T01:12:39.215Z,97671.47
2023-05-13T01:15:09.927Z,97674.09
2023-05-13T01:17:51.235Z,97678.03
2023-05-13T01:20:24.816Z,97678.25
2023-05-13T01:22:52.022Z,97687.16
2023-05-13T01:25:19.917Z,97679.16
2023-05-13T01:27:46.589Z,97687.38
2023-05-13T01:30:14.879Z,97691.84
2023-05-13T01:32:41.917Z,97699.97
2023-05-13T01:35:11.616Z,97701.53
2023-05-13T01:37:39.656Z,97711.63
2023-05-13T01:40:20.330Z,97703.41
2023-05-13T01:42:54.756Z,97717.00
2023-05-13T01:45:21.585Z,97724.59
2023-05-13T01:47:49.032Z,97725.50
2023-05-13T01:50:16.378Z,97724.41
2023-05-13T01:52:44.434Z,97716.84
2023-05-13T01:55:11.587Z,97716.19
2023-05-13T01:57:38.848Z,97717.47
2023-05-13T02:00:09.876Z,97715.53
2023-05-13T02:02:36.824Z,97719.06
2023-05-13T02:05:04.766Z,97721.84
2023-05-13T02:07:32.441Z,97719.00
2023-05-13T02:10:00.639Z,97720.84
2023-05-13T02:12:27.669Z,97721.59
2023-05-13T02:14:56.368Z,97714.97
2023-05-13T02:17:23.859Z,97715.06
2023-05-13T02:19:51.049Z,97718.88
2023-05-13T02:22:24.083Z,97717.53
2023-05-13T02:24:53.974Z,97703.97
2023-05-13T02:27:24.069Z,97688.31
2023-05-13T02:29:51.110Z,97684.94
2023-05-13T02:32:19.153Z,97679.72
2023-05-13T02:34:45.975Z,97684.09
2023-05-13T02:37:12.705Z,97687.66
2023-05-13T02:39:39.482Z,97683.75
2023-05-13T02:42:06.695Z,97679.72
2023-05-13T02:44:33.598Z,97678.25
2023-05-13T02:47:01.250Z,97688.13
2023-05-13T02:49:28.082Z,97689.31
2023-05-13T02:51:54.832Z,97688.84
2023-05-13T02:54:21.746Z,97695.16
2023-05-13T02:56:48.776Z,97696.09
2023-05-13T02:59:16.297Z,97692.06
2023-05-13T03:01:43.583Z,97708.38
2023-05-13T03:04:10.446Z,97714.06
2023-05-13T03:06:38.290Z,97727.56
2023-05-13T03:09:06.157Z,97729.78
2023-05-13T03:11:33.125Z,97731.63
2023-05-13T03:13:59.957Z,97733.50
2023-05-13T03:16:30.036Z,97742.63
2023-05-13T03:18:56.975Z,97750.44
2023-05-13T03:21:23.876Z,97757.06
2023-05-13T03:23:51.337Z,97754.94
2023-05-13T03:26:18.462Z,97754.00
2023-05-13T03:28:45.871Z,97755.59
2023-05-13T03:31:13.636Z,97761.66
2023-05-13T03:33:40.904Z,97759.81
2023-05-13T03:36:08.021Z,97764.47
2023-05-13T03:38:35.280Z,97763.75
2023-05-13T03:41:02.006Z,97766.78
2023-05-13T03:43:29.240Z,97754.66
2023-05-13T03:45:56.112Z,97757.09
2023-05-13T03:48:23.145Z,97753.91
2023-05-13T03:50:50.146Z,97748.31
2023-05-13T03:53:17.450Z,97748.81
2023-05-13T03:55:46.172Z,97744.69
2023-05-13T03:58:16.699Z,97756.28
2023-05-13T04:00:46.982Z,97758.88
2023-05-13T04:03:14.946Z,97756.22
2023-05-13T04:05:41.984Z,97757.91
2023-05-13T04:08:09.186Z,97753.22
2023-05-13T04:10:37.458Z,97755.56
2023-05-13T04:13:05.731Z,97758.81
2023-05-13T04:15:32.805Z,97757.75
2023-05-13T04:18:00.862Z,97759.31
2023-05-13T04:20:27.770Z,97758.31
2023-05-13T04:22:56.014Z,97765.38
2023-05-13T04:25:26.043Z,97757.91
2023-05-13T04:28:02.440Z,97770.50
2023-05-13T04:30:33.056Z,97767.00
2023-05-13T04:33:00.749Z,97766.81
2023-05-13T04:35:28.331Z,97774.22
2023-05-13T04:37:58.377Z,97771.84
2023-05-13T04:40:28.696Z,97761.47
2023-05-13T04:42:56.009Z,97757.16
2023-05-13T04:45:25.885Z,97759.75
2023-05-13T04:47:53.956Z,97753.59
2023-05-13T04:50:22.910Z,97749.63
2023-05-13T04:52:51.275Z,97740.72
2023-05-13T04:55:18.770Z,97739.88
2023-05-13T04:57:46.147Z,97748.09
2023-05-13T05:00:23.501Z,97753.28
2023-05-13T05:02:51.388Z,97754.47
2023-05-13T05:05:26.059Z,97747.66
2023-05-13T05:07:53.271Z,97731.91
2023-05-13T05:10:24.050Z,97744.94
2023-05-13T05:12:51.197Z,97741.59
2023-05-13T05:15:21.406Z,97745.19
2023-05-13T05:17:48.614Z,97745.56
2023-05-13T05:20:15.963Z,97749.00
2023-05-13T05:22:43.172Z,97753.88
2023-05-13T05:25:14.764Z,97750.88
2023-05-13T05:27:41.655Z,97757.97
2023-05-13T05:30:10.908Z,97750.78
2023-05-13T05:32:38.388Z,97761.72
2023-05-13T05:35:06.402Z,97765.06
2023-05-13T05:37:39.137Z,97752.03
2023-05-13T05:40:07.041Z,97752.97
2023-05-13T05:42:34.648Z,97759.50
2023-05-13T05:45:01.677Z,97752.44
2023-05-13T05:47:28.850Z,97750.53
2023-05-13T05:49:55.817Z,97754.41
2023-05-13T05:52:23.896Z,97751.97
2023-05-13T05:54:51.115Z,97756.78
2023-05-13T05:57:18.191Z,97757.63
2023-05-13T05:59:45.627Z,97761.78
2023-05-13T06:02:12.978Z,97751.31
2023-05-13T06:04:41.923Z,97756.94
2023-05-13T06:07:12.616Z,97756.72
2023-05-13T06:09:48.060Z,97762.75
2023-05-13T06:12:15.350Z,97761.22
2023-05-13T06:14:43.582Z,97760.81
2023-05-13T06:17:10.505Z,97757.81
2023-05-13T06:22:36.411Z,97745.28
2023-05-13T06:25:03.983Z,97734.56
2023-05-13T06:27:31.101Z,97735.09
2023-05-13T06:30:04.737Z,97733.50
2023-05-13T06:32:31.904Z,97739.69
2023-05-13T06:34:58.703Z,97733.97
2023-05-13T06:37:25.618Z,97736.44
2023-05-13T06:39:52.552Z,97734.22
2023-05-13T06:42:19.511Z,97738.78
2023-05-13T06:44:46.414Z,97736.97
2023-05-13T06:47:16.220Z,97745.25
2023-05-13T06:49:46.421Z,97740.03
2023-05-13T06:52:13.435Z,97745.75
2023-05-13T06:54:40.445Z,97746.19
2023-05-13T06:57:07.651Z,97754.31
2023-05-13T06:59:35.324Z,97748.50
2023-05-13T07:02:11.369Z,97749.88
2023-05-13T07:04:41.403Z,97755.13
2023-05-13T07:07:08.210Z,97756.00
2023-05-13T07:09:35.387Z,97759.72
2023-05-13T07:12:02.305Z,97757.47
2023-05-13T07:14:29.142Z,97754.78
2023-05-13T07:16:55.973Z,97743.38
2023-05-13T07:19:23.049Z,97737.72
2023-05-13T07:21:49.917Z,97744.41
2023-05-13T07:24:17.068Z,97752.84
2023-05-13T07:26:43.941Z,97751.41
2023-05-13T07:29:11.006Z,97749.88
2023-05-13T07:31:38.022Z,97755.69
2023-05-13T07:34:05.059Z,97751.50
2023-05-13T07:36:31.958Z,97750.22
2023-05-13T07:38:59.468Z,97753.50
2023-05-13T07:41:27.765Z,97742.25
2023-05-13T07:43:55.172Z,97745.34
2023-05-13T07:46:22.106Z,97747.91
2023-05-13T07:48:48.855Z,97739.47
2023-05-13T07:51:18.506Z,97751.81
2023-05-13T07:53:47.299Z,97747.03
2023-05-13T07:56:14.197Z,97749.44
2023-05-13T07:58:41.220Z,97742.81
2023-05-13T08:01:08.353Z,97749.00
2023-05-13T08:03:35.232Z,97737.16
2023-05-13T08:06:02.184Z,97742.88
2023-05-13T08:08:29.178Z,97736.25
2023-05-13T08:10:56.665Z,97733.44
2023-05-13T08:13:23.643Z,97736.00
2023-05-13T08:15:50.648Z,97725.84
2023-05-13T08:18:17.512Z,97723.91
2023-05-13T08:20:44.500Z,97725.13
2023-05-13T08:23:11.714Z,97730.13
2023-05-13T08:25:39.009Z,97737.66
2023-05-13T08:28:05.966Z,97742.63
2023-05-13T08:30:33.320Z,97738.28
2023-05-13T08:33:00.283Z,97733.09
2023-05-13T08:35:27.067Z,97729.22
2023-05-13T08:37:53.880Z,97727.91
2023-05-13T08:40:21.347Z,97729.34
2023-05-13T08:42:52.088Z,97737.59
2023-05-13T08:45:21.845Z,97736.41
2023-05-13T08:47:54.658Z,97735.13
2023-05-13T08:50:22.804Z,97727.53
2023-05-13T08:52:52.625Z,97730.09
2023-05-13T08:55:19.812Z,97737.75
2023-05-13T08:57:46.950Z,97731.22
2023-05-13T09:00:14.769Z,97736.44
2023-05-13T09:02:42.098Z,97731.84
2023-05-13T09:05:10.767Z,97739.97
2023-05-13T09:07:39.275Z,97736.41
2023-05-13T09:10:07.829Z,97737.34
2023-05-13T09:12:49.857Z,97742.91
2023-05-13T09:15:22.745Z,97736.78
2023-05-13T09:17:53.373Z,97742.63
2023-05-13T09:20:22.381Z,97739.81
2023-05-13T09:22:52.172Z,97720.25
2023-05-13T09:25:21.296Z,97733.38
2023-05-13T09:27:54.084Z,97730.81
2023-05-13T09:30:22.013Z,97728.09
2023-05-13T09:33:13.882Z,97724.75
2023-05-13T09:35:45.892Z,97727.16
2023-05-13T09:38:37.018Z,97723.47
2023-05-13T09:41:04.064Z,97716.25
2023-05-13T09:43:34.501Z,97707.09
2023-05-13T09:46:03.805Z,97708.28
2023-05-13T09:48:33.132Z,97701.28
2023-05-13T09:51:00.759Z,97701.91
2023-05-13T09:53:27.864Z,97691.00
2023-05-13T09:55:58.828Z,97689.78
2023-05-13T09:58:37.337Z,97687.28
2023-05-13T10:01:04.901Z,97687.22
2023-05-13T10:03:32.245Z,97678.47
2023-05-13T10:06:02.268Z,97681.91
2023-05-13T10:08:30.776Z,97691.03
2023-05-13T10:10:58.515Z,97686.81
2023-05-13T10:13:26.449Z,97690.06
2023-05-13T10:15:55.408Z,97694.81
2023-05-13T10:18:24.635Z,97695.81
2023-05-13T10:20:54.098Z,97711.22
2023-05-13T10:23:24.422Z,97708.13
2023-05-13T10:25:54.487Z,97706.16
2023-05-13T10:28:21.799Z,97713.19
2023-05-13T10:30:52.476Z,97709.47
2023-05-13T10:33:20.380Z,97706.56
2023-05-13T10:36:11.497Z,97706.31
2023-05-13T10:38:55.373Z,97709.53
2023-05-13T10:42:00.173Z,97715.78
2023-05-13T10:44:27.549Z,97715.16
2023-05-13T10:46:57.041Z,97725.28
2023-05-13T10:49:25.663Z,97721.44
2023-05-13T10:51:52.986Z,97737.06
2023-05-13T10:54:25.100Z,97731.38
2023-05-13T10:56:59.376Z,97731.03
2023-05-13T10:59:30.641Z,97729.66
2023-05-13T11:02:22.124Z,97736.47
2023-05-13T11:05:00.422Z,97733.59
2023-05-13T11:07:30.286Z,97734.38
2023-05-13T11:09:57.095Z,97732.22
2023-05-13T11:12:24.225Z,97724.09
2023-05-13T11:14:56.406Z,97728.88
2023-05-13T11:17:23.296Z,97717.72
2023-05-13T11:19:52.601Z,97713.69
2023-05-13T11:22:21.802Z,97706.31
2023-05-13T11:25:04.255Z,97696.38
2023-05-13T11:27:37.964Z,97697.22
2023-05-13T11:30:25.976Z,97695.75
2023-05-13T11:33:05.723Z,97695.94
2023-05-13T11:35:33.493Z,97700.47
2023-05-13T11:38:03.319Z,97703.44
2023-05-13T11:40:45.604Z,97706.66
2023-05-13T11:43:19.485Z,97708.22
2023-05-13T11:45:47.495Z,97698.84
2023-05-13T11:48:22.493Z,97699.06
2023-05-13T11:50:52.104Z,97705.03
2023-05-13T11:53:25.045Z,97698.50
2023-05-13T11:55:51.914Z,97712.72
2023-05-13T11:58:21.595Z,97722.78
2023-05-13T12:00:48.607Z,97717.84
2023-05-13T12:03:16.600Z,97715.88
2023-05-13T12:05:46.434Z,97710.16
2023-05-13T12:08:13.569Z,97702.06
2023-05-13T12:10:45.121Z,97715.13
2023-05-13T12:13:12.497Z,97713.13
2023-05-13T12:15:39.916Z,97714.78
2023-05-13T12:18:07.759Z,97711.91
2023-05-13T12:20:34.694Z,97706.94
2023-05-13T12:23:01.900Z,97713.84
2023-05-13T12:25:50.347Z,97711.69
2023-05-13T12:28:24.986Z,97703.16
2023-05-13T12:30:57.752Z,97708.75
2023-05-13T12:33:30.040Z,97698.31
2023-05-13T12:36:24.190Z,97695.28
2023-05-13T12:39:02.671Z,97694.84
2023-05-13T12:41:35.443Z,97696.50
2023-05-13T12:44:04.450Z,97692.16
2023-05-13T12:46:31.601Z,97685.53
2023-05-13T12:49:01.223Z,97686.09
2023-05-13T12:51:33.925Z,97691.00
2023-05-13T12:54:01.041Z,97685.09
2023-05-13T12:56:28.092Z,97679.34
2023-05-13T12:58:54.986Z,97681.81
2023-05-13T13:01:22.176Z,97682.66
2023-05-13T13:03:49.314Z,97679.75
2023-05-13T13:06:16.707Z,97688.03
2023-05-13T13:08:43.521Z,97687.81
2023-05-13T13:11:10.645Z,97681.81
2023-05-13T13:13:39.254Z,97678.88
2023-05-13T13:16:07.511Z,97686.25
2023-05-13T13:18:37.404Z,97679.63
2023-05-13T13:21:05.476Z,97677.16
2023-05-13T13:23:32.226Z,97677.34
2023-05-13T13:25:59.463Z,97684.09
2023-05-13T13:28:29.227Z,97678.97
2023-05-13T13:30:56.357Z,97674.16
2023-05-13T13:33:23.266Z,97674.94
2023-05-13T13:35:50.113Z,97680.59
2023-05-13T13:38:16.817Z,97688.72
2023-05-13T13:40:43.654Z,97682.25
2023-05-13T13:43:10.678Z,97683.91
2023-05-13T13:45:37.568Z,97676.50
2023-05-13T13:48:04.822Z,97679.91
2023-05-13T13:50:34.764Z,97679.84
2023-05-13T13:53:01.500Z,97682.75
2023-05-13T13:55:28.326Z,97688.41
2023-05-13T13:57:58.117Z,97684.47
2023-05-13T14:00:28.115Z,97688.41
2023-05-13T14:02:54.934Z,97678.38
2023-05-13T14:05:21.844Z,97680.59
2023-05-13T14:07:49.648Z,97678.44
2023-05-13T14:10:16.539Z,97685.22
2023-05-13T14:12:43.304Z,97683.28
2023-05-13T14:15:10.499Z,97680.34
2023-05-13T14:17:37.266Z,97685.19
2023-05-13T14:20:04.874Z,97683.78
2023-05-13T14:22:32.969Z,97681.72
2023-05-13T14:24:59.722Z,97676.94
2023-05-13T14:27:26.625Z,97683.31
2023-05-13T14:29:53.380Z,97687.63
2023-05-13T14:32:20.298Z,97679.06
2023-05-13T14:34:47.191Z,97683.78
2023-05-13T14:37:14.073Z,97683.97
2023-05-13T14:39:40.952Z,97680.63
2023-05-13T14:42:07.834Z,97676.91
2023-05-13T14:44:37.457Z,97685.44
2023-05-13T14:47:04.796Z,97683.88
2023-05-13T14:49:31.642Z,97690.16
2023-05-13T14:51:59.016Z,97682.34
2023-05-13T14:54:26.356Z,97688.09
2023-05-13T14:56:53.380Z,97694.88
2023-05-13T14:59:20.387Z,97683.09
2023-05-13T15:01:47.409Z,97685.94
2023-05-13T15:04:14.769Z,97688.91
2023-05-13T15:06:41.723Z,97692.38
2023-05-13T15:09:08.606Z,97700.75
2023-05-13T15:11:35.618Z,97699.56
2023-05-13T15:14:03.287Z,97693.59
2023-05-13T15:16:33.039Z,97692.69
2023-05-13T15:19:00.146Z,97694.72
2023-05-13T15:21:27.131Z,97693.75
2023-05-13T15:23:53.878Z,97696.06
2023-05-13T15:26:21.204Z,97689.91
2023-05-13T15:28:48.163Z,97697.72
2023-05-13T15:31:14.975Z,97696.72
2023-05-13T15:33:43.864Z,97690.88
2023-05-13T15:36:12.206Z,97692.16
2023-05-13T15:38:39.133Z,97687.41
2023-05-13T15:41:06.237Z,97692.84
2023-05-13T15:43:34.401Z,97696.91
2023-05-13T15:46:01.580Z,97702.38
2023-05-13T15:48:29.391Z,97697.53
2023-05-13T15:50:56.071Z,97697.09
2023-05-13T15:53:22.942Z,97694.44
2023-05-13T15:55:49.652Z,97694.00
2023-05-13T15:58:16.659Z,97691.34
2023-05-13T16:00:43.498Z,97689.47
2023-05-13T16:03:10.615Z,97691.88
2023-05-13T16:05:38.877Z,97695.03
2023-05-13T16:08:06.220Z,97680.44
2023-05-13T16:10:35.821Z,97686.53
2023-05-13T16:13:02.830Z,97695.72
2023-05-13T16:15:29.752Z,97697.81
2023-05-13T16:17:56.939Z,97690.94
2023-05-13T16:20:24.502Z,97695.47
2023-05-13T16:22:51.975Z,97702.16
2023-05-13T16:25:18.911Z,97694.78
2023-05-13T16:27:46.141Z,97685.56
2023-05-13T16:30:13.438Z,97717.56
2023-05-13T16:32:40.342Z,97722.63
2023-05-13T16:35:08.088Z,97730.31
2023-05-13T16:37:35.638Z,97736.34
2023-05-13T16:40:02.434Z,97735.56
2023-05-13T16:42:29.472Z,97730.44
2023-05-13T16:44:56.524Z,97705.75
2023-05-13T16:47:23.634Z,97723.53
2023-05-13T16:49:50.509Z,97723.56
2023-05-13T16:52:17.553Z,97734.25
2023-05-13T16:54:44.849Z,97730.28
2023-05-13T16:57:11.855Z,97721.00
2023-05-13T16:59:38.703Z,97726.69
2023-05-13T17:02:06.199Z,97741.66
2023-05-13T17:04:34.313Z,97742.31
2023-05-13T17:07:04.048Z,97724.38
2023-05-13T17:09:31.452Z,97728.53
2023-05-13T17:11:58.404Z,97725.53
2023-05-13T17:14:25.634Z,97733.47
2023-05-13T17:16:55.915Z,97750.03
2023-05-13T17:19:23.338Z,97740.50
2023-05-13T17:21:54.217Z,97750.41
2023-05-13T17:24:22.765Z,97755.81
2023-05-13T17:26:57.406Z,97755.53
2023-05-13T17:29:56.742Z,97766.06
2023-05-13T17:32:57.432Z,97752.97
2023-05-13T17:35:24.172Z,97768.59
2023-05-13T17:37:51.054Z,97773.59
2023-05-13T17:40:17.919Z,97772.03
2023-05-13T17:42:44.930Z,97770.06
2023-05-13T17:45:12.172Z,97760.56
2023-05-13T17:47:39.339Z,97768.03
2023-05-13T17:50:06.796Z,97754.31
2023-05-13T17:52:33.572Z,97755.50
2023-05-13T17:55:00.452Z,97761.00
2023-05-13T17:57:28.092Z,97763.25
2023-05-13T17:59:55.106Z,97755.13
2023-05-13T18:02:22.225Z,97760.59
2023-05-13T18:04:49.039Z,97754.78
2023-05-13T18:07:16.081Z,97763.28
2023-05-13T18:09:43.261Z,97773.19
2023-05-13T18:12:10.017Z,97771.53
2023-05-13T18:14:36.914Z,97776.00
2023-05-13T18:17:04.722Z,97774.16
2023-05-13T18:19:31.489Z,97785.00
2023-05-13T18:21:58.240Z,97785.31
2023-05-13T18:24:25.265Z,97786.72
2023-05-13T18:26:52.081Z,97800.06
2023-05-13T18:29:19.339Z,97794.22
2023-05-13T18:31:46.316Z,97797.81
2023-05-13T18:34:13.224Z,97798.09
2023-05-13T18:36:40.377Z,97800.72
2023-05-13T18:39:08.769Z,97799.22
2023-05-13T18:41:36.212Z,97803.75
2023-05-13T18:44:05.863Z,97810.16
2023-05-13T18:46:33.027Z,97804.13
2023-05-13T18:49:17.994Z,97800.00
2023-05-13T18:51:45.689Z,97801.66
2023-05-13T18:54:12.915Z,97806.06
2023-05-13T18:56:40.043Z,97807.44
2023-05-13T18:59:10.039Z,97798.97
2023-05-13T19:01:37.556Z,97799.53
2023-05-13T19:04:04.622Z,97786.44
2023-05-13T19:06:32.270Z,97786.16
2023-05-13T19:09:00.876Z,97784.38
2023-05-13T19:11:27.829Z,97785.00
2023-05-13T19:13:55.055Z,97791.72
2023-05-13T19:16:22.110Z,97787.66
2023-05-13T19:18:49.060Z,97775.97
2023-05-13T19:21:16.305Z,97771.72
2023-05-13T19:23:43.342Z,97780.09
2023-05-13T19:26:10.324Z,97769.09
2023-05-13T19:28:38.310Z,97772.59
2023-05-13T19:31:06.223Z,97767.59
2023-05-13T19:33:33.365Z,97773.13
2023-05-13T19:36:00.505Z,97778.97
2023-05-13T19:38:27.225Z,97772.81
2023-05-13T19:40:55.032Z,97766.13
2023-05-13T19:43:21.802Z,97769.03
2023-05-13T19:45:48.820Z,97767.88
2023-05-13T19:48:16.178Z,97768.63
2023-05-13T19:50:43.222Z,97774.19
2023-05-13T19:53:10.123Z,97773.47
2023-05-13T19:55:37.234Z,97770.59
2023-05-13T19:58:04.178Z,97766.16
2023-05-13T20:00:31.010Z,97775.41
2023-05-13T20:02:58.068Z,97779.16
2023-05-13T20:05:24.981Z,97773.28
2023-05-13T20:07:52.143Z,97764.81
2023-05-13T20:10:19.020Z,97768.34
2023-05-13T20:12:46.050Z,97775.84
2023-05-13T20:15:12.820Z,97785.25
2023-05-13T20:17:39.730Z,97779.63
2023-05-13T20:20:08.419Z,97775.19
2023-05-13T20:22:35.446Z,97776.81
2023-05-13T20:25:02.480Z,97779.00
2023-05-13T20:27:32.512Z,97771.84
2023-05-13T20:30:12.826Z,97786.13
2023-05-13T20:32:43.082Z,97775.50
2023-05-13T20:35:38.859Z,97786.03
2023-05-13T20:38:06.813Z,97780.44
2023-05-13T20:40:58.485Z,97775.41
2023-05-13T20:43:26.118Z,97767.66
2023-05-13T20:46:00.920Z,97775.34
2023-05-13T20:48:32.464Z,97776.66
2023-05-13T20:51:03.065Z,97774.41
2023-05-13T20:53:30.948Z,97781.47
2023-05-13T20:55:58.179Z,97773.34
2023-05-13T20:58:26.490Z,97772.28
2023-05-13T21:00:53.377Z,97778.75
2023-05-13T21:03:20.912Z,97762.75
2023-05-13T21:05:48.667Z,97771.69
2023-05-13T21:08:16.548Z,97760.59
2023-05-13T21:10:43.128Z,97765.84
2023-05-13T21:13:10.158Z,97767.06
2023-05-13T21:15:37.147Z,97763.00
2023-05-13T21:18:04.342Z,97771.97
2023-05-13T21:20:32.926Z,97764.06
2023-05-13T21:23:01.454Z,97765.16
2023-05-13T21:25:28.391Z,97758.00
2023-05-13T21:27:55.239Z,97758.69
2023-05-13T21:30:22.548Z,97767.78
2023-05-13T21:32:52.484Z,97757.25
2023-05-13T21:35:19.512Z,97753.56
2023-05-13T21:37:47.473Z,97756.53
2023-05-13T21:40:14.839Z,97759.53
2023-05-13T21:42:41.784Z,97757.38
2023-05-13T21:45:09.249Z,97764.31
2023-05-13T21:47:36.182Z,97759.44
2023-05-13T21:50:03.557Z,97751.03
2023-05-13T21:52:30.524Z,97756.44
2023-05-13T21:54:58.564Z,97756.53
2023-05-13T21:57:25.695Z,97755.69
2023-05-13T21:59:52.606Z,97764.16
2023-05-13T22:02:19.472Z,97766.09
2023-05-13T22:04:46.503Z,97761.06
2023-05-13T22:07:13.424Z,97764.16
2023-05-13T22:09:40.410Z,97767.75
2023-05-13T22:12:07.484Z,97765.13
2023-05-13T22:14:34.301Z,97768.81
2023-05-13T22:17:09.178Z,97769.31
2023-05-13T22:19:37.206Z,97769.44
2023-05-13T22:22:04.421Z,97771.22
2023-05-13T22:24:31.590Z,97775.41
2023-05-13T22:26:59.051Z,97777.53
2023-05-13T22:29:26.127Z,97781.13
2023-05-13T22:31:53.203Z,97772.06
2023-05-13T22:34:20.322Z,97766.81
2023-05-13T22:36:47.198Z,97771.00
2023-05-13T22:39:15.163Z,97776.38
2023-05-13T22:41:41.768Z,97784.25
2023-05-13T22:44:09.905Z,97786.59
2023-05-13T22:46:43.636Z,97782.06
2023-05-13T22:49:12.336Z,97789.34
2023-05-13T22:51:39.185Z,97779.41
2023-05-13T22:54:06.741Z,97783.84
2023-05-13T22:56:33.603Z,97786.56
2023-05-13T22:59:00.474Z,97783.72
2023-05-13T23:01:31.686Z,97782.16
2023-05-13T23:03:59.022Z,97783.47
2023-05-13T23:06:26.709Z,97768.38
2023-05-13T23:08:53.600Z,97763.84
2023-05-13T23:11:20.605Z,97764.53
2023-05-13T23:13:47.408Z,97771.19
2023-05-13T23:16:14.585Z,97768.88
2023-05-13T23:18:41.687Z,97778.97
2023-05-13T23:21:09.314Z,97773.94
2023-05-13T23:23:36.544Z,97773.34
2023-05-13T23:26:05.902Z,97757.59
2023-05-13T23:28:33.760Z,97749.16
2023-05-13T23:31:00.674Z,97747.09
2023-05-13T23:33:27.941Z,97754.13
2023-05-13T23:35:57.948Z,97752.72
2023-05-13T23:38:24.790Z,97743.78
2023-05-13T23:40:51.633Z,97742.31
2023-05-13T23:43:18.611Z,97746.41
2023-05-13T23:45:46.423Z,97749.75
2023-05-13T23:48:13.216Z,97743.06
2023-05-13T23:50:41.858Z,97750.19
2023-05-13T23:53:09.239Z,97755.97
2023-05-13T23:55:36.426Z,97745.56
2023-05-13T23:58:03.255Z,97755.84
